SondeTracker

Meteorological Radiosondes Database

Operations

Sounding was ended - last measurement: 2022-12-05 19:38:13z

MAP
About Radiosonde

Number: U1830178

Launch Site: Anchorage [AK] (US)

Type: RS41-SGP

AUX: NO

Frequency: 405.301 MHz

Max Speed: 135 km/h at 33595 m

Average Speed: 60.32 km/h

Max Altitude: 34156 m

Average Ascent Speed: 5.12 m/s

Average Descent Speed: 27.62 m/s

Status: UNKNOWN

Status Changes
Launch Site Type AUX Frequency Status Finder Landing Point Description Changes made by
APRS Statistics

Received Frames: 182

First Frame [UTC]: 2022-12-05 17:43:49z

Last Frame [UTC]: 2022-12-05 19:38:13z

Receivers: KL4XQ

Flight Time: 01:54:24 h

Distance From First Measurement: 66.21 km

Nearest City: Anchorage [AK] (US) [31.77 km]

Nearest Hunter: KL4XQ [34.84 km]

Ground Altitude: 714 m

Distance from QTH: 0.00 km

APRS Data
Receiver Number Date/Time [UTC] φ λ Course [°] Speed [km/h] Altitude [m] Description
KL4XQU18301782022-12-05 19:38:1361.3682-148.72331835842Clb=-16.9m/s t=-21.0C h=84.4% p=480.5hPa 405.301 MHz Type=RS41-SGP Radiosonde
KL4XQU18301782022-12-05 19:37:4261.3624-148.7330856381Clb=-19.0m/s t=-24.8C h=72.5% p=446.5hPa 405.301 MHz Type=RS41-SGP Radiosonde
KL4XQU18301782022-12-05 19:37:1161.3561-148.73826857008Clb=-19.1m/s t=-30.0C h=61.2% p=409.4hPa 405.301 MHz Type=RS41-SGP Radiosonde
KL4XQU18301782022-12-05 19:36:4061.3523-148.74123837390Clb=-19.6m/s t=-33.3C h=58.6% p=387.7hPa 405.301 MHz Type=RS41-SGP Radiosonde
KL4XQU18301782022-12-05 19:36:0961.3464-148.74723817996Clb=-19.2m/s t=-38.9C h=65.1% p=355.4hPa 405.301 MHz Type=RS41-SGP Radiosonde
KL4XQU18301782022-12-05 19:35:3861.3404-148.75325898599Clb=-21.4m/s t=-44.0C h=49.8% p=325.4hPa 405.301 MHz Type=RS41-SGP Radiosonde
KL4XQU18301782022-12-05 19:35:0761.3343-148.75923899223Clb=-19.6m/s t=-49.3C h=56.0% p=296.2hPa 405.301 MHz Type=RS41-SGP Radiosonde
KL4XQU18301782022-12-05 19:34:3661.328-148.76629949869Clb=-22.7m/s t=-54.5C h=49.4% p=268.2hPa 405.301 MHz Type=RS41-SGP Radiosonde
KL4XQU18301782022-12-05 19:34:0561.3214-148.772128910602Clb=-22.7m/s t=-60.6C h=29.3% p=238.8hPa 405.301 MHz Type=RS41-SGP Radiosonde
KL4XQU18301782022-12-05 19:33:3461.3148-148.774238711314Clb=-22.1m/s t=-62.2C h=12.9% p=212.8hPa 405.301 MHz Type=RS41-SGP Radiosonde
KL4XQU18301782022-12-05 19:33:0361.3096-148.779378011980Clb=-22.2m/s t=-59.5C h=4.1% p=191.3hPa 405.301 MHz Type=RS41-SGP Radiosonde
KL4XQU18301782022-12-05 19:32:3261.3067-148.787293512646Clb=-22.5m/s t=-52.7C h=1.7% p=172.4hPa 405.301 MHz Type=RS41-SGP Radiosonde
KL4XQU18301782022-12-05 19:32:0161.3047-148.791643513357Clb=-23.8m/s t=-53.9C h=1.7% p=154.2hPa 405.301 MHz Type=RS41-SGP Radiosonde
KL4XQU18301782022-12-05 19:31:3061.3041-148.7971003114083Clb=-24.6m/s t=-53.3C h=1.8% p=137.7hPa 405.301 MHz Type=RS41-SGP Radiosonde
KL4XQU18301782022-12-05 19:30:5861.3042-148.801952614843Clb=-26.4m/s t=-52.6C h=1.5% p=122.5hPa 405.301 MHz Type=RS41-SGP Radiosonde
KL4XQU18301782022-12-05 19:30:2761.304-148.806893015632Clb=-26.2m/s t=-54.7C h=1.6% p=108.3hPa 405.301 MHz Type=RS41-SGP Radiosonde
KL4XQU18301782022-12-05 19:29:5661.3043-148.8093291517120Clb=-29.6m/s t=-55.4C h=1.4% p=85.8hPa 405.301 MHz Type=RS41-SGP Radiosonde
KL4XQU18301782022-12-05 19:28:2361.3039-148.8191563919656Clb=-29.2m/s t=-56.8C h=1.2% p=57.6hPa 405.301 MHz Type=RS41-SGP Radiosonde
KL4XQU18301782022-12-05 19:27:2161.3056-148.817227420784Clb=-34.9m/s t=-58.5C h=1.5% p=48.2hPa 405.301 MHz Type=RS41-SGP Radiosonde
KL4XQU18301782022-12-05 19:26:1961.3087-148.8281582423083Clb=-34.8m/s t=-55.7C h=1.1% p=33.6hPa 405.301 MHz Type=RS41-SGP Radiosonde
KL4XQU18301782022-12-05 19:25:4861.3124-148.8311543024710Clb=-31.4m/s t=-57.5C h=1.2% p=26.0hPa 405.301 MHz Type=RS41-SGP Radiosonde
KL4XQU18301782022-12-05 19:24:4661.3163-148.8391277026592Clb=-42.6m/s t=-57.9C h=1.1% p=19.4hPa 405.301 MHz Type=RS41-SGP Radiosonde
KL4XQU18301782022-12-05 19:24:1561.3187-148.8451397827450Clb=-35.2m/s t=-59.0C h=1.1% p=16.8hPa 405.301 MHz Type=RS41-SGP Radiosonde
KL4XQU18301782022-12-05 19:23:4461.3244-148.8551288728882Clb=-43.1m/s t=-61.4C h=1.3% p=13.4hPa 405.301 MHz Type=RS41-SGP Radiosonde
KL4XQU18301782022-12-05 19:23:1361.3278-148.8591646529889Clb=-45.6m/s t=-62.5C h=1.3% p=11.4hPa 405.301 MHz Type=RS41-SGP Radiosonde
KL4XQU18301782022-12-05 19:22:4261.3312-148.8641208531261Clb=-43.6m/s t=-65.9C h=1.5% p=9.1hPa 405.301 MHz Type=RS41-SGP Radiosonde
KL4XQU18301782022-12-05 19:22:1061.3354-148.8751119332636Clb=-45.4m/s t=-67.7C h=1.9% p=7.2hPa 405.301 MHz Type=RS41-SGP Radiosonde
KL4XQU18301782022-12-05 19:21:3961.3403-148.8913711533832Clb=-39.5m/s t=-66.6C h=1.9% p=5.9hPa 405.301 MHz Type=RS41-SGP Radiosonde
KL4XQU18301782022-12-05 19:21:0861.3459-148.90312710934156Clb=6.5m/s t=-65.0C h=1.6% p=5.5hPa 405.301 MHz Type=RS41-SGP Radiosonde
KL4XQU18301782022-12-05 19:20:3761.3521-148.91614111933965Clb=5.6m/s t=-66.1C h=1.5% p=5.7hPa 405.301 MHz Type=RS41-SGP Radiosonde
KL4XQU18301782022-12-05 19:20:0661.3581-148.92813910933777Clb=5.8m/s t=-67.4C h=1.8% p=5.9hPa 405.301 MHz Type=RS41-SGP Radiosonde
KL4XQU18301782022-12-05 19:19:3561.3645-148.94212813533595Clb=6.0m/s t=-66.7C h=1.7% p=6.0hPa 405.301 MHz Type=RS41-SGP Radiosonde
KL4XQU18301782022-12-05 19:19:0461.3699-148.95812312633410Clb=6.1m/s t=-67.1C h=1.8% p=6.3hPa 405.301 MHz Type=RS41-SGP Radiosonde
KL4XQU18301782022-12-05 19:18:3361.3744-148.97611211733215Clb=4.7m/s t=-66.5C h=1.7% p=6.5hPa 405.301 MHz Type=RS41-SGP Radiosonde
KL4XQU18301782022-12-05 19:18:0261.3786-148.99810810932982Clb=6.1m/s t=-68.4C h=1.9% p=6.7hPa 405.301 MHz Type=RS41-SGP Radiosonde
KL4XQU18301782022-12-05 19:17:3161.3806-149.00811610932867Clb=5.5m/s t=-69.0C h=2.0% p=6.8hPa 405.301 MHz Type=RS41-SGP Radiosonde
KL4XQU18301782022-12-05 19:17:0061.3841-149.0221237632679Clb=5.7m/s t=-68.7C h=2.0% p=7.1hPa 405.301 MHz Type=RS41-SGP Radiosonde
KL4XQU18301782022-12-05 19:16:2961.3876-149.0321287632506Clb=5.7m/s t=-68.9C h=2.1% p=7.3hPa 405.301 MHz Type=RS41-SGP Radiosonde
KL4XQU18301782022-12-05 19:15:5861.392-149.0431408532322Clb=6.3m/s t=-68.4C h=1.9% p=7.5hPa 405.301 MHz Type=RS41-SGP Radiosonde
KL4XQU18301782022-12-05 19:15:2761.3966-149.0541378732131Clb=5.4m/s t=-68.3C h=2.0% p=7.7hPa 405.301 MHz Type=RS41-SGP Radiosonde
KL4XQU18301782022-12-05 19:14:5661.4012-149.0651468031940Clb=6.0m/s t=-68.5C h=2.1% p=8.0hPa 405.301 MHz Type=RS41-SGP Radiosonde
KL4XQU18301782022-12-05 19:14:2461.4062-149.0741377431751Clb=5.2m/s t=-67.8C h=2.1% p=8.2hPa 405.301 MHz Type=RS41-SGP Radiosonde
KL4XQU18301782022-12-05 19:13:5361.4106-149.0841357831555Clb=6.7m/s t=-66.8C h=1.9% p=8.5hPa 405.301 MHz Type=RS41-SGP Radiosonde
KL4XQU18301782022-12-05 19:13:2261.4144-149.0951298531363Clb=5.5m/s t=-65.4C h=-1.0% p=-1.0hPa 405.301 MHz Type=RS41-SGP Radiosonde
KL4XQU18301782022-12-05 19:12:5161.4175-149.1061128031181Clb=4.8m/s t=-65.8C h=-1.0% p=-1.0hPa 405.301 MHz Type=RS41-SGP Radiosonde
KL4XQU18301782022-12-05 19:12:2061.4198-149.1161315631002Clb=6.9m/s t=-273.0C h=-1.0% p=-1.0hPa 405.301 MHz Type=RS41-SGP Radiosonde
KL4XQU18301782022-12-05 19:11:4961.4221-149.1231235230824Clb=6.9m/s t=-273.0C h=-1.0% p=-1.0hPa 405.301 MHz Type=RS41-SGP Radiosonde
KL4XQU18301782022-12-05 19:11:1861.4244-149.1281533730641Clb=7.4m/s t=-273.0C h=-1.0% p=-1.0hPa 405.301 MHz Type=RS41-SGP Radiosonde
KL4XQU18301782022-12-05 19:10:4761.4278-149.131715730456Clb=4.5m/s t=-273.0C h=-1.0% p=-1.0hPa 405.301 MHz Type=RS41-SGP Radiosonde
KL4XQU18301782022-12-05 19:10:1661.4324-149.1321656730271Clb=5.7m/s t=-273.0C h=-1.0% p=-1.0hPa 405.301 MHz Type=RS41-SGP Radiosonde
KL4XQU18301782022-12-05 19:06:0861.4715-149.21269128688Clb=6.7m/s t=-273.0C h=-1.0% p=-1.0hPa 405.301 MHz Type=RS41 Radiosonde
KL4XQU18301782022-12-05 18:59:2461.524-149.3061406126204Clb=4.7m/s t=-59.0C h=1.3% p=20.3hPa 405.301 MHz Type=RS41-SGP Radiosonde
KL4XQU18301782022-12-05 18:58:5361.5241-149.3061375726198Clb=6.1m/s t=-59.1C h=1.3% p=20.4hPa 405.301 MHz Type=RS41-SGP Radiosonde
KL4XQU18301782022-12-05 18:57:2061.5337-149.3231304125594Clb=5.7m/s t=-59.6C h=1.4% p=22.4hPa 405.301 MHz Type=RS41-SGP Radiosonde
KL4XQU18301782022-12-05 18:56:4961.5354-149.3261434125484Clb=6.7m/s t=-59.6C h=1.4% p=22.8hPa 405.301 MHz Type=RS41-SGP Radiosonde
KL4XQU18301782022-12-05 18:56:1761.5377-149.3291423325314Clb=7.0m/s t=-59.1C h=1.4% p=23.4hPa 405.301 MHz Type=RS41-SGP Radiosonde
KL4XQU18301782022-12-05 18:55:4661.541-149.3331514125109Clb=6.3m/s t=-58.0C h=1.3% p=24.2hPa 405.301 MHz Type=RS41-SGP Radiosonde
KL4XQU18301782022-12-05 18:55:1561.5437-149.3361674424953Clb=5.5m/s t=-57.8C h=1.4% p=24.9hPa 405.301 MHz Type=RS41-SGP Radiosonde
KL4XQU18301782022-12-05 18:54:4461.5465-149.3391393524763Clb=5.9m/s t=-57.9C h=1.4% p=25.6hPa 405.301 MHz Type=RS41-SGP Radiosonde
KL4XQU18301782022-12-05 18:54:1361.549-149.3411592824583Clb=5.8m/s t=-58.1C h=1.3% p=26.3hPa 405.301 MHz Type=RS41-SGP Radiosonde
KL4XQU18301782022-12-05 18:53:4261.5518-149.3411833724437Clb=5.6m/s t=-58.1C h=1.5% p=26.9hPa 405.301 MHz Type=RS41-SGP Radiosonde
KL4XQU18301782022-12-05 18:52:4061.5615-149.3471494324039Clb=4.5m/s t=-57.5C h=1.4% p=28.7hPa 405.301 MHz Type=RS41-SGP Radiosonde
KL4XQU18301782022-12-05 18:52:0961.5632-149.351343123948Clb=3.9m/s t=-57.9C h=1.4% p=29.1hPa 405.301 MHz Type=RS41-SGP Radiosonde
KL4XQU18301782022-12-05 18:51:3861.5656-149.3541314623816Clb=4.5m/s t=-57.5C h=1.4% p=29.7hPa 405.301 MHz Type=RS41-SGP Radiosonde
KL4XQU18301782022-12-05 18:51:0761.5687-149.3591365923643Clb=6.4m/s t=-57.4C h=1.4% p=30.5hPa 405.301 MHz Type=RS41-SGP Radiosonde
KL4XQU18301782022-12-05 18:50:3661.5716-149.3651343923469Clb=6.8m/s t=-57.3C h=1.4% p=31.4hPa 405.301 MHz Type=RS41-SGP Radiosonde
KL4XQU18301782022-12-05 18:50:0561.5737-149.3681712823286Clb=5.0m/s t=-57.6C h=1.5% p=32.3hPa 405.301 MHz Type=RS41-SGP Radiosonde
KL4XQU18301782022-12-05 18:49:3461.5758-149.371383723108Clb=6.4m/s t=-57.6C h=1.4% p=33.2hPa 405.301 MHz Type=RS41-SGP Radiosonde
KL4XQU18301782022-12-05 18:49:0361.5777-149.3761164422937Clb=5.9m/s t=-56.7C h=1.4% p=34.1hPa 405.301 MHz Type=RS41-SGP Radiosonde
KL4XQU18301782022-12-05 18:48:3261.5792-149.3831085422781Clb=2.7m/s t=-56.3C h=1.4% p=35.0hPa 405.301 MHz Type=RS41-SGP Radiosonde
KL4XQU18301782022-12-05 18:48:0061.5805-149.391015222635Clb=4.6m/s t=-55.8C h=1.4% p=35.8hPa 405.301 MHz Type=RS41-SGP Radiosonde
KL4XQU18301782022-12-05 18:47:2961.5821-149.3971243122463Clb=4.6m/s t=-56.5C h=1.5% p=36.8hPa 405.301 MHz Type=RS41-SGP Radiosonde
KL4XQU18301782022-12-05 18:44:5461.5858-149.423882821632Clb=3.9m/s t=-56.5C h=1.6% p=41.9hPa 405.301 MHz Type=RS41-SGP Radiosonde
KL4XQU18301782022-12-05 18:44:2361.5864-149.4261502021511Clb=5.7m/s t=-56.5C h=1.7% p=42.7hPa 405.301 MHz Type=RS41-SGP Radiosonde
KL4XQU18301782022-12-05 18:43:5261.5875-149.431162021317Clb=4.4m/s t=-57.5C h=1.7% p=44.0hPa 405.301 MHz Type=RS41-SGP Radiosonde
KL4XQU18301782022-12-05 18:43:2161.5873-149.433622221190Clb=5.3m/s t=-57.6C h=1.7% p=44.9hPa 405.301 MHz Type=RS41-SGP Radiosonde
KL4XQU18301782022-12-05 18:42:5061.5866-149.435189421037Clb=4.5m/s t=-57.9C h=1.8% p=46.0hPa 405.301 MHz Type=RS41-SGP Radiosonde
KL4XQU18301782022-12-05 18:42:1961.5869-149.4361211520912Clb=4.2m/s t=-58.0C h=1.8% p=47.0hPa 405.301 MHz Type=RS41-SGP Radiosonde
KL4XQU18301782022-12-05 18:40:4661.5894-149.4362191720296Clb=5.6m/s t=-58.0C h=2.0% p=51.8hPa 405.301 MHz Type=RS41-SGP Radiosonde
KL4XQU18301782022-12-05 18:40:1461.5895-149.4362291720275Clb=5.2m/s t=-58.2C h=2.0% p=52.0hPa 405.301 MHz Type=RS41-SGP Radiosonde
KL4XQU18301782022-12-05 18:39:4361.5911-149.4351802220108Clb=6.1m/s t=-57.9C h=2.1% p=53.3hPa 405.301 MHz Type=RS41-SGP Radiosonde
KL4XQU18301782022-12-05 18:39:1261.5929-149.4351762819974Clb=5.9m/s t=-57.9C h=-1.0% p=54.5hPa 405.301 MHz Type=RS41-SGP Radiosonde
KL4XQU18301782022-12-05 18:38:4161.5959-149.4371524319782Clb=4.2m/s t=-57.9C h=-1.0% p=56.2hPa 405.301 MHz Type=RS41-SGP Radiosonde
KL4XQU18301782022-12-05 18:38:1061.599-149.4451134319584Clb=5.5m/s t=-57.7C h=-1.0% p=58.0hPa 405.301 MHz Type=RS41-SGP Radiosonde
KL4XQU18301782022-12-05 18:37:3961.5999-149.451084619479Clb=4.5m/s t=-57.4C h=-1.0% p=58.9hPa 405.301 MHz Type=RS41-SGP Radiosonde
KL4XQU18301782022-12-05 18:37:0861.6005-149.4541054419401Clb=4.3m/s t=-57.2C h=-1.0% p=59.7hPa 405.301 MHz Type=RS41-SGP Radiosonde
KL4XQU18301782022-12-05 18:36:3761.6006-149.461843719258Clb=4.7m/s t=-57.0C h=-1.0% p=61.0hPa 405.301 MHz Type=RS41-SGP Radiosonde
KL4XQU18301782022-12-05 18:36:0661.6001-149.467754419112Clb=4.1m/s t=-56.7C h=-1.0% p=62.4hPa 405.301 MHz Type=RS41-SGP Radiosonde
KL4XQU18301782022-12-05 18:35:3561.6001-149.474973018950Clb=4.8m/s t=-56.2C h=-1.0% p=64.0hPa 405.301 MHz Type=RS41-SGP Radiosonde
KL4XQU18301782022-12-05 18:35:0461.5992-149.478562618785Clb=5.6m/s t=-55.7C h=-1.0% p=-1.0hPa 405.301 MHz Type=RS41-SGP Radiosonde
KL4XQU18301782022-12-05 18:34:3361.5982-149.481891518596Clb=5.7m/s t=-273.0C h=-1.0% p=-1.0hPa 405.301 MHz Type=RS41 Radiosonde
KL4XQU18301782022-12-05 18:34:0261.598-149.483771718482Clb=5.3m/s t=-273.0C h=-1.0% p=-1.0hPa 405.301 MHz Type=RS41 Radiosonde
KL4XQU18301782022-12-05 18:29:5361.5936-149.4822812417339Clb=3.6m/s t=-56.4C h=3.0% p=82.4hPa 405.301 MHz Type=RS41-SGP Radiosonde
KL4XQU18301782022-12-05 18:29:2261.5928-149.4793031517210Clb=4.6m/s t=-56.8C h=3.2% p=84.1hPa 405.301 MHz Type=RS41-SGP Radiosonde
KL4XQU18301782022-12-05 18:28:5161.5923-149.477332617065Clb=4.0m/s t=-58.1C h=3.4% p=86.0hPa 405.301 MHz Type=RS41-SGP Radiosonde
KL4XQU18301782022-12-05 18:28:2061.5925-149.4761641316934Clb=4.2m/s t=-57.9C h=3.3% p=87.8hPa 405.301 MHz Type=RS41-SGP Radiosonde
KL4XQU18301782022-12-05 18:27:4961.5935-149.477931916791Clb=4.9m/s t=-58.5C h=3.5% p=89.9hPa 405.301 MHz Type=RS41-SGP Radiosonde
KL4XQU18301782022-12-05 18:27:1861.5939-149.4791021316676Clb=5.3m/s t=-58.4C h=3.6% p=91.5hPa 405.301 MHz Type=RS41-SGP Radiosonde
KL4XQU18301782022-12-05 18:26:4761.5937-149.483672216541Clb=5.1m/s t=-57.5C h=3.6% p=93.5hPa 405.301 MHz Type=RS41-SGP Radiosonde
KL4XQU18301782022-12-05 18:26:1661.5933-149.487991716401Clb=5.6m/s t=-57.1C h=3.7% p=95.5hPa 405.301 MHz Type=RS41-SGP Radiosonde
KL4XQU18301782022-12-05 18:25:4561.5938-149.488114716256Clb=4.3m/s t=-57.3C h=3.7% p=97.8hPa 405.301 MHz Type=RS41-SGP Radiosonde
KL4XQU18301782022-12-05 18:25:1461.5945-149.4911252416118Clb=4.2m/s t=-57.3C h=3.8% p=99.9hPa 405.301 MHz Type=RS41-SGP Radiosonde
KL4XQU18301782022-12-05 18:24:4361.5951-149.494882215979Clb=4.7m/s t=-57.2C h=4.0% p=102.1hPa 405.301 MHz Type=RS41-SGP Radiosonde
KL4XQU18301782022-12-05 18:24:1261.595-149.498762015844Clb=3.8m/s t=-56.6C h=4.1% p=104.3hPa 405.301 MHz Type=RS41-SGP Radiosonde
KL4XQU18301782022-12-05 18:23:4161.5946-149.503772815702Clb=3.9m/s t=-55.8C h=4.0% p=106.6hPa 405.301 MHz Type=RS41-SGP Radiosonde
KL4XQU18301782022-12-05 18:23:1061.5942-149.508804115565Clb=5.2m/s t=-55.5C h=4.1% p=109.0hPa 405.301 MHz Type=RS41-SGP Radiosonde
KL4XQU18301782022-12-05 18:22:3961.5936-149.515714115435Clb=3.7m/s t=-55.5C h=4.1% p=111.2hPa 405.301 MHz Type=RS41-SGP Radiosonde
KL4XQU18301782022-12-05 18:22:0761.5926-149.52683315304Clb=4.0m/s t=-55.0C h=4.2% p=113.5hPa 405.301 MHz Type=RS41-SGP Radiosonde
KL4XQU18301782022-12-05 18:21:3661.5922-149.526793715174Clb=4.5m/s t=-54.8C h=4.1% p=115.8hPa 405.301 MHz Type=RS41-SGP Radiosonde
KL4XQU18301782022-12-05 18:21:0561.5923-149.531943015047Clb=4.1m/s t=-55.0C h=4.2% p=118.1hPa 405.301 MHz Type=RS41-SGP Radiosonde
KL4XQU18301782022-12-05 18:20:3461.592-149.536763514917Clb=5.1m/s t=-54.9C h=4.2% p=120.5hPa 405.301 MHz Type=RS41-SGP Radiosonde
KL4XQU18301782022-12-05 18:20:0361.5914-149.541592414776Clb=4.2m/s t=-54.6C h=4.5% p=123.2hPa 405.301 MHz Type=RS41-SGP Radiosonde
KL4XQU18301782022-12-05 18:19:3261.5907-149.545702814641Clb=5.0m/s t=-54.4C h=4.3% p=125.8hPa 405.301 MHz Type=RS41-SGP Radiosonde
KL4XQU18301782022-12-05 18:19:0161.59-149.55753114504Clb=5.7m/s t=-54.3C h=4.6% p=128.6hPa 405.301 MHz Type=RS41-SGP Radiosonde
KL4XQU18301782022-12-05 18:18:3061.5897-149.555932014366Clb=4.3m/s t=-54.5C h=5.0% p=131.3hPa 405.301 MHz Type=RS41-SGP Radiosonde
KL4XQU18301782022-12-05 18:17:5961.5904-149.5581093014231Clb=3.4m/s t=-53.4C h=4.5% p=134.1hPa 405.301 MHz Type=RS41-SGP Radiosonde
KL4XQU18301782022-12-05 18:17:2861.5911-149.5621092814093Clb=6.5m/s t=-52.9C h=4.6% p=137.1hPa 405.301 MHz Type=RS41-SGP Radiosonde
KL4XQU18301782022-12-05 18:16:5761.591-149.569854313942Clb=3.7m/s t=-54.9C h=4.5% p=140.3hPa 405.301 MHz Type=RS41-SGP Radiosonde
KL4XQU18301782022-12-05 18:16:2661.5899-149.575543313825Clb=3.1m/s t=-56.5C h=5.1% p=142.9hPa 405.301 MHz Type=RS41-SGP Radiosonde
KL4XQU18301782022-12-05 18:15:5561.5889-149.579722413700Clb=3.9m/s t=-56.3C h=5.6% p=145.7hPa 405.301 MHz Type=RS41-SGP Radiosonde
KL4XQU18301782022-12-05 18:15:2461.5879-149.582692213572Clb=3.7m/s t=-55.6C h=5.7% p=148.6hPa 405.301 MHz Type=RS41-SGP Radiosonde
KL4XQU18301782022-12-05 18:14:5261.5869-149.586512213413Clb=3.9m/s t=-54.7C h=5.5% p=152.4hPa 405.301 MHz Type=RS41-SGP Radiosonde
KL4XQU18301782022-12-05 18:14:2161.5862-149.589692413298Clb=4.4m/s t=-53.8C h=5.4% p=155.2hPa 405.301 MHz Type=RS41-SGP Radiosonde
KL4XQU18301782022-12-05 18:13:5061.585-149.594553913152Clb=5.1m/s t=-53.8C h=5.6% p=158.7hPa 405.301 MHz Type=RS41-SGP Radiosonde
KL4XQU18301782022-12-05 18:13:1961.5832-149.598453313018Clb=3.4m/s t=-54.1C h=5.6% p=162.0hPa 405.301 MHz Type=RS41-SGP Radiosonde
KL4XQU18301782022-12-05 18:12:4861.5809-149.602353512892Clb=4.2m/s t=-54.0C h=5.6% p=165.2hPa 405.301 MHz Type=RS41-SGP Radiosonde
KL4XQU18301782022-12-05 18:12:1761.5785-149.605224112766Clb=3.0m/s t=-53.5C h=5.5% p=168.5hPa 405.301 MHz Type=RS41-SGP Radiosonde
KL4XQU18301782022-12-05 18:11:4661.5759-149.609433712631Clb=3.8m/s t=-53.3C h=6.1% p=172.1hPa 405.301 MHz Type=RS41-SGP Radiosonde
KL4XQU18301782022-12-05 18:11:1561.5737-149.615637212473Clb=8.4m/s t=-54.3C h=7.4% p=176.3hPa 405.301 MHz Type=RS41-SGP Radiosonde
KL4XQU18301782022-12-05 18:10:4461.5713-149.626608012304Clb=5.0m/s t=-55.7C h=9.7% p=181.1hPa 405.301 MHz Type=RS41-SGP Radiosonde
KL4XQU18301782022-12-05 18:10:1361.5674-149.636448312126Clb=5.4m/s t=-59.8C h=14.7% p=186.1hPa 405.301 MHz Type=RS41-SGP Radiosonde
KL4XQU18301782022-12-05 18:09:4261.5619-149.643267211955Clb=5.3m/s t=-60.3C h=16.8% p=191.4hPa 405.301 MHz Type=RS41-SGP Radiosonde
KL4XQU18301782022-12-05 18:09:1161.5564-149.647157211787Clb=3.9m/s t=-59.9C h=18.8% p=196.6hPa 405.301 MHz Type=RS41-SGP Radiosonde
KL4XQU18301782022-12-05 18:08:4061.5512-149.65176511645Clb=3.3m/s t=-59.4C h=19.9% p=201.1hPa 405.301 MHz Type=RS41-SGP Radiosonde
KL4XQU18301782022-12-05 18:08:0961.5467-149.654306711522Clb=3.7m/s t=-60.3C h=23.5% p=205.1hPa 405.301 MHz Type=RS41-SGP Radiosonde
KL4XQU18301782022-12-05 18:07:3861.5417-149.661287811382Clb=7.5m/s t=-60.7C h=29.6% p=209.7hPa 405.301 MHz Type=RS41-SGP Radiosonde
KL4XQU18301782022-12-05 18:07:0761.5366-149.664177211233Clb=3.5m/s t=-61.4C h=39.0% p=214.8hPa 405.301 MHz Type=RS41-SGP Radiosonde
KL4XQU18301782022-12-05 18:06:3561.5308-149.668127611098Clb=3.8m/s t=-61.2C h=45.0% p=219.6hPa 405.301 MHz Type=RS41-SGP Radiosonde
KL4XQU18301782022-12-05 18:06:0461.5244-149.6728910969Clb=3.8m/s t=-61.7C h=48.0% p=224.1hPa 405.301 MHz Type=RS41-SGP Radiosonde
KL4XQU18301782022-12-05 18:05:3361.518-149.66978310840Clb=5.8m/s t=-62.4C h=48.4% p=228.9hPa 405.301 MHz Type=RS41-SGP Radiosonde
KL4XQU18301782022-12-05 18:05:0261.5115-149.671158110678Clb=7.7m/s t=-61.1C h=50.0% p=234.9hPa 405.301 MHz Type=RS41-SGP Radiosonde
KL4XQU18301782022-12-05 18:04:3161.5052-149.67338910478Clb=6.1m/s t=-59.6C h=49.4% p=242.6hPa 405.301 MHz Type=RS41-SGP Radiosonde
KL4XQU18301782022-12-05 18:04:0061.4991-149.678258110282Clb=7.4m/s t=-58.1C h=53.6% p=250.3hPa 405.301 MHz Type=RS41-SGP Radiosonde
KL4XQU18301782022-12-05 18:03:2961.4929-149.685289610144Clb=4.1m/s t=-56.9C h=57.5% p=255.9hPa 405.301 MHz Type=RS41-SGP Radiosonde
KL4XQU18301782022-12-05 18:02:5861.4863-149.693289610009Clb=4.6m/s t=-55.7C h=56.6% p=261.3hPa 405.301 MHz Type=RS41-SGP Radiosonde
KL4XQU18301782022-12-05 18:02:2761.4795-149.701281029869Clb=4.2m/s t=-54.7C h=55.3% p=266.4hPa 405.301 MHz Type=RS41-SGP Radiosonde
KL4XQU18301782022-12-05 18:01:5661.4725-149.71341099765Clb=3.4m/s t=-53.9C h=57.2% p=271.5hPa 405.301 MHz Type=RS41-SGP Radiosonde
KL4XQU18301782022-12-05 18:01:2561.4648-149.719301029628Clb=4.7m/s t=-53.0C h=60.5% p=277.4hPa 405.301 MHz Type=RS41-SGP Radiosonde
KL4XQU18301782022-12-05 18:00:5461.4587-149.727311009521Clb=4.2m/s t=-52.2C h=64.0% p=282.0hPa 405.301 MHz Type=RS41-SGP Radiosonde
KL4XQU18301782022-12-05 18:00:2361.4516-149.73629989395Clb=3.4m/s t=-51.3C h=68.2% p=287.6hPa 405.301 MHz Type=RS41-SGP Radiosonde
KL4XQU18301782022-12-05 17:59:5261.4448-149.744321069265Clb=3.1m/s t=-50.1C h=65.4% p=293.2hPa 405.301 MHz Type=RS41-SGP Radiosonde
KL4XQU18301782022-12-05 17:59:2161.4378-149.752241049103Clb=3.9m/s t=-48.5C h=61.4% p=300.7hPa 405.301 MHz Type=RS41-SGP Radiosonde
KL4XQU18301782022-12-05 17:58:5061.4281-149.76225968879Clb=4.1m/s t=-46.7C h=63.1% p=311.1hPa 405.301 MHz Type=RS41-SGP Radiosonde
KL4XQU18301782022-12-05 17:58:1961.4239-149.766241008781Clb=4.1m/s t=-45.9C h=61.6% p=315.6hPa 405.301 MHz Type=RS41-SGP Radiosonde
KL4XQU18301782022-12-05 17:57:4761.4171-149.77120948608Clb=6.2m/s t=-44.3C h=64.2% p=323.9hPa 405.301 MHz Type=RS41-SGP Radiosonde
KL4XQU18301782022-12-05 17:57:1661.4068-149.78122898359Clb=5.5m/s t=-42.0C h=67.9% p=336.2hPa 405.301 MHz Type=RS41-SGP Radiosonde
KL4XQU18301782022-12-05 17:56:4561.4036-149.78424938285Clb=4.9m/s t=-41.4C h=67.5% p=339.9hPa 405.301 MHz Type=RS41-SGP Radiosonde
KL4XQU18301782022-12-05 17:56:1461.3971-149.7924938143Clb=4.3m/s t=-40.1C h=66.0% p=346.9hPa 405.301 MHz Type=RS41-SGP Radiosonde
KL4XQU18301782022-12-05 17:55:4361.3906-149.79624878013Clb=4.7m/s t=-39.0C h=64.2% p=353.6hPa 405.301 MHz Type=RS41-SGP Radiosonde
KL4XQU18301782022-12-05 17:55:1261.3843-149.80125937849Clb=5.6m/s t=-37.5C h=61.1% p=362.1hPa 405.301 MHz Type=RS41-SGP Radiosonde
KL4XQU18301782022-12-05 17:54:4161.378-149.80829917693Clb=6.6m/s t=-36.1C h=60.6% p=370.4hPa 405.301 MHz Type=RS41-SGP Radiosonde
KL4XQU18301782022-12-05 17:54:1061.3717-149.81533857513Clb=3.8m/s t=-34.6C h=61.6% p=380.1hPa 405.301 MHz Type=RS41-SGP Radiosonde
KL4XQU18301782022-12-05 17:53:3961.365-149.82330917350Clb=4.2m/s t=-33.1C h=68.8% p=389.2hPa 405.301 MHz Type=RS41-SGP Radiosonde
KL4XQU18301782022-12-05 17:53:0861.3593-149.82924947198Clb=5.1m/s t=-31.8C h=66.4% p=397.7hPa 405.301 MHz Type=RS41-SGP Radiosonde
KL4XQU18301782022-12-05 17:52:3761.3528-149.83629837044Clb=7.8m/s t=-30.4C h=65.3% p=406.3hPa 405.301 MHz Type=RS41-SGP Radiosonde
KL4XQU18301782022-12-05 17:52:0661.3466-149.84322946864Clb=7.1m/s t=-28.9C h=71.1% p=416.6hPa 405.301 MHz Type=RS41-SGP Radiosonde
KL4XQU18301782022-12-05 17:51:3561.3402-149.85271026692Clb=7.1m/s t=-27.4C h=73.1% p=426.8hPa 405.301 MHz Type=RS41-SGP Radiosonde
KL4XQU18301782022-12-05 17:51:0461.3336-149.85731936527Clb=5.8m/s t=-26.1C h=71.1% p=436.7hPa 405.301 MHz Type=RS41-SGP Radiosonde
KL4XQU18301782022-12-05 17:50:3361.3244-149.86831916295Clb=7.8m/s t=-24.2C h=76.8% p=450.8hPa 405.301 MHz Type=RS41-SGP Radiosonde
KL4XQU18301782022-12-05 17:50:0261.3185-149.87425986154Clb=5.9m/s t=-23.1C h=74.9% p=459.6hPa 405.301 MHz Type=RS41-SGP Radiosonde
KL4XQU18301782022-12-05 17:49:3061.3142-149.87926816031Clb=5.4m/s t=-22.2C h=75.3% p=467.3hPa 405.301 MHz Type=RS41-SGP Radiosonde
KL4XQU18301782022-12-05 17:48:5961.308-149.886311005894Clb=3.9m/s t=-21.1C h=80.8% p=476.1hPa 405.301 MHz Type=RS41-SGP Radiosonde
KL4XQU18301782022-12-05 17:48:2861.299-149.896331025674Clb=5.4m/s t=-19.6C h=81.1% p=490.4hPa 405.301 MHz Type=RS41-SGP Radiosonde
KL4XQU18301782022-12-05 17:47:5761.295-149.90132985561Clb=4.8m/s t=-18.9C h=84.4% p=497.9hPa 405.301 MHz Type=RS41-SGP Radiosonde
KL4XQU18301782022-12-05 17:47:2661.2879-149.90822915376Clb=4.9m/s t=-17.6C h=85.0% p=510.5hPa 405.301 MHz Type=RS41-SGP Radiosonde
KL4XQU18301782022-12-05 17:46:5561.2819-149.91424935236Clb=4.4m/s t=-17.3C h=93.3% p=520.2hPa 405.301 MHz Type=RS41-SGP Radiosonde
KL4XQU18301782022-12-05 17:46:2461.2761-149.91927855090Clb=4.9m/s t=-16.8C h=93.1% p=530.3hPa 405.301 MHz Type=RS41-SGP Radiosonde
KL4XQU18301782022-12-05 17:45:5361.2699-149.92322854918Clb=5.0m/s t=-16.2C h=94.8% p=542.7hPa 405.301 MHz Type=RS41-SGP Radiosonde
KL4XQU18301782022-12-05 17:45:2261.2639-149.92612744763Clb=5.3m/s t=-15.6C h=93.5% p=554.1hPa 405.301 MHz Type=RS41-SGP Radiosonde
KL4XQU18301782022-12-05 17:44:5161.2581-149.9320894600Clb=5.7m/s t=-15.1C h=94.1% p=566.1hPa 405.301 MHz Type=RS41-SGP Radiosonde
KL4XQU18301782022-12-05 17:44:2061.2522-149.9346744442Clb=5.2m/s t=-14.3C h=94.5% p=578.2hPa 405.301 MHz Type=RS41-SGP Radiosonde
KL4XQU18301782022-12-05 17:43:4961.2465-149.9379654284Clb=4.2m/s t=-273.0C h=-1.0% p=590.2hPa 405.301 MHz Type=RS41-SGP Radiosonde